• Join FlightAware (Why Join?)
  • Login
  • US Flag 
03:43PM EDT


 

Airport Tracker/Info


-or-


 

Live Flight TrackerFlight Track Log ✈ SKW6306 ✈ 26-Jun-2013 ✈ KDEN - KPSP

Flight Track Log - Related Links

Times and Time Zones

All times are in EDT time to prevent confusion due to time zone crossing. See the SKW6306 flight status page for this flight to view local times or setup timezone preferences in your user account.

Time Position Orientation Groundspeed Altitude Reporting Facility
EDT Latitude Longitude Course Direction KTS MPH feet Rate Location/Type
12:32AM 39.8000 -104.6500 229° Southwest 181 208 7,300  Level Denver TRACON
12:33AM 39.7667 -104.7000 229° Southwest 223 257 8,500 1,380 Climbing Denver TRACON
12:34AM 39.7500 -104.8000 258° West 278 320 10,000 1,380 Climbing Denver TRACON
12:35AM 39.7231 -104.8917 249° West 292 336 11,400 1,320 Climbing Denver Center
12:36AM 39.6986 -104.9997 254° West 314 361 12,800 1,440 Climbing Denver Center
12:37AM 39.6692 -105.1208 253° West 325 374 14,400 1,440 Climbing Denver Center
12:38AM 39.6422 -105.2361 253° West 333 383 15,800 1,380 Climbing Denver Center
12:39AM 39.6153 -105.3539 253° West 339 390 17,300 1,380 Climbing Denver Center
12:40AM 39.5850 -105.4803 253° West 340 391 18,700 1,260 Climbing Denver Center
12:41AM 39.5569 -105.5958 253° West 339 390 19,900 1,260 Climbing Denver Center
12:42AM 39.5253 -105.7144 251° West 347 399 21,300 1,080 Climbing Denver Center
12:43AM 39.4939 -105.8244 250° West 349 402 22,100 780 Climbing Denver Center
12:44AM 39.4628 -105.9439 251° West 353 406 23,000 660 Climbing Denver Center
12:45AM 39.4203 -106.0942 250° West 372 428 23,500 480 Climbing Denver Center
12:46AM 39.3858 -106.2161 250° West 386 444 24,100 540 Climbing Denver Center
12:47AM 39.3442 -106.3644 250° West 392 451 24,700 540 Climbing Denver Center
12:48AM 39.3067 -106.4942 250° West 400 460 25,200 540 Climbing Denver Center
12:49AM 39.2692 -106.6261 250° West 408 470 25,800 420 Climbing Denver Center
12:50AM 39.2142 -106.7753 245° Southwest 412 474 26,100 420 Climbing Denver Center
12:51AM 39.1514 -106.8964 236° Southwest 420 483 26,700 600 Climbing Denver Center
12:52AM 39.0889 -107.0183 237° Southwest 423 487 27,400 660 Climbing Denver Center
12:53AM 39.0181 -107.1544 236° Southwest 413 475 28,100 540 Climbing Denver Center
12:54AM 38.9558 -107.2744 236° Southwest 416 479 28,600 480 Climbing Denver Center
12:55AM 38.8839 -107.4131 236° Southwest 416 479 29,200 540 Climbing Denver Center
12:56AM 38.8231 -107.5297 236° Southwest 413 475 29,700 480 Climbing Denver Center
12:57AM 38.7600 -107.6475 236° Southwest 416 479 30,200 540 Climbing Denver Center
12:58AM 38.6883 -107.7847 236° Southwest 414 476 30,900 540 Climbing Denver Center
12:59AM 38.6264 -107.9008 236° Southwest 412 474 31,400 480 Climbing Denver Center
01:00AM 38.5653 -108.0161 236° Southwest 409 471 31,900 240 Climbing Denver Center
01:01AM 38.4925 -108.1508 235° Southwest 411 473 32,000  Climbing Denver Center
01:02AM 38.4286 -108.2717 236° Southwest 424 488 32,000  Level Denver Center
01:03AM 38.3625 -108.3939 235° Southwest 433 498 32,000  Level Denver Center
01:04AM 38.2847 -108.5383 236° Southwest 440 506 32,000 180 Level Denver Center
01:05AM 38.2178 -108.6653 236° Southwest 446 513 32,400 420 Climbing Denver Center
01:06AM 38.1403 -108.8083 235° Southwest 441 507 32,900 480 Climbing Denver Center
01:07AM 38.0742 -108.9283 235° Southwest 434 499 33,400 480 Climbing Denver Center
01:08AM 38.0022 -109.0558 234° Southwest 422 486 33,900 240 Climbing Denver Center
01:10AM 37.9372 -109.1744 235° Southwest 426 490 34,000  Climbing Denver Center
01:11AM 37.8694 -109.2936 234° Southwest 433 498 34,000  Level Denver Center
01:12AM 37.7906 -109.4364 235° Southwest 442 509 34,000  Level Denver Center
01:13AM 37.7106 -109.5819 235° Southwest 450 518 34,000  Level Denver Center
01:14AM 37.6303 -109.7231 234° Southwest 447 514 34,000  Level Denver Center
01:15AM 37.5608 -109.8458 235° Southwest 450 518 34,000  Level Denver Center
01:16AM 37.4578 -110.0297 235° Southwest 449 517 34,000  Level Denver Center
01:17AM 37.3772 -110.1722 235° Southwest 449 517 34,000  Level Denver Center
01:18AM 37.3050 -110.2969 234° Southwest 449 517 34,000  Level Denver Center
01:19AM 37.2322 -110.4253 235° Southwest 452 520 34,000  Level Denver Center
01:20AM 37.1583 -110.5522 234° Southwest 450 518 34,000  Level Denver Center
01:21AM 37.0856 -110.6800 234° Southwest 450 518 34,000  Level Denver Center
01:22AM 37.0119 -110.8072 234° Southwest 450 518 34,000  Level Denver Center
01:23AM 36.9369 -110.9342 234° Southwest 452 520 34,000  Level Denver Center
01:24AM 36.8633 -111.0614 234° Southwest 452 520 34,000  Level Denver Center
01:25AM 36.7892 -111.1883 234° Southwest 452 520 34,000  Level Denver Center
01:26AM 36.7147 -111.3144 234° Southwest 452 520 34,000  Level Denver Center
01:27AM 36.6389 -111.4422 234° Southwest 455 524 34,000  Level Denver Center
01:28AM 36.5650 -111.5675 234° Southwest 451 519 34,000  Level Denver Center
01:29AM 36.5058 -111.6686 234° Southwest 451 519 34,000  Level Denver Center
01:30AM 36.4003 -111.8444 233° Southwest 452 520 34,000  Level Denver Center
01:31AM 36.3244 -111.9697 233° Southwest 453 521 34,000  Level Denver Center
01:32AM 36.2489 -112.0958 233° Southwest 455 524 34,000  Level Denver Center
01:34AM 36.1728 -112.2211 233° Southwest 455 524 34,000  Level Denver Center
01:35AM 36.0969 -112.3472 233° Southwest 455 524 34,000  Level Denver Center
01:36AM 36.0067 -112.4939 233° Southwest 449 517 34,000  Level Los Angeles Center
01:37AM 35.9317 -112.6175 233° Southwest 453 521 34,000  Level Los Angeles Center
01:38AM 35.8556 -112.7442 233° Southwest 459 528 34,000  Level Los Angeles Center
01:39AM 35.7658 -112.8906 233° Southwest 455 524 34,000  Level Los Angeles Center
01:40AM 35.6867 -113.0164 232° Southwest 452 520 34,000  Level Los Angeles Center
01:41AM 35.6103 -113.1411 233° Southwest 455 524 34,000  Level Los Angeles Center
01:42AM 35.5328 -113.2636 232° Southwest 454 522 34,000  Level Los Angeles Center
01:43AM 35.4639 -113.3744 233° Southwest 455 524 34,000  Level Los Angeles Center
01:44AM 35.3731 -113.5211 233° Southwest 456 525 34,000 -300 Level Los Angeles Center
01:45AM 35.2967 -113.6425 232° Southwest 455 524 33,400 -840 Descending Los Angeles Center
01:46AM 35.2164 -113.7700 232° Southwest 470 541 32,400 -720 Descending Los Angeles Center
01:47AM 35.1344 -113.8986 232° Southwest 481 554 32,000 -240 Descending Los Angeles Center
01:48AM 35.0564 -114.0206 232° Southwest 477 549 32,000 -300 Level Los Angeles Center
01:49AM 34.9589 -114.1736 232° Southwest 475 547 31,400 -780 Descending Los Angeles Center
01:50AM 34.8750 -114.3033 232° Southwest 485 558 30,500 -720 Descending Los Angeles Center
01:51AM 34.7914 -114.4322 232° Southwest 485 558 30,000 -300 Descending Los Angeles Center
01:52AM 34.7078 -114.5597 231° Southwest 483 556 30,000  Level Los Angeles Center
01:53AM 34.6219 -114.6906 231° Southwest 475 547 30,000  Level Los Angeles Center
01:54AM 34.5414 -114.8128 231° Southwest 467 537 30,000  Level Los Angeles Center
01:55AM 34.4606 -114.9342 231° Southwest 465 535 30,000 -660 Level Los Angeles Center
01:56AM 34.3797 -115.0536 231° Southwest 461 531 28,700 -1,920 Descending Los Angeles Center
01:57AM 34.2981 -115.1772 231° Southwest 468 539 26,100 -2,520 Descending Los Angeles Center
01:58AM 34.2186 -115.2928 230° Southwest 455 524 23,600 -2,280 Descending Los Angeles Center
02:00AM 34.1414 -115.4064 231° Southwest 444 511 21,100 -2,520 Descending Los Angeles Center
02:01AM 34.0494 -115.5431 231° Southwest 436 502 18,000 -2,760 Descending Los Angeles Center
02:02AM 33.9753 -115.6533 231° Southwest 428 493 15,500 -2,760 Descending Los Angeles Center
02:03AM 33.9131 -115.7953 242° Southwest 413 475 12,500 -2,280 Descending Los Angeles Center
02:04AM 33.9053 -115.9156 266° West 374 430 10,900 -840 Descending Los Angeles Center
02:05AM 33.8992 -116.0181 266° West 327 376 10,900 -300 Level Los Angeles Center
02:06AM 33.8644 -116.1053 244° Southwest 314 361 10,400 -1,080 Descending Los Angeles Center
02:07AM 33.8178 -116.1822 234° Southwest 295 339 8,800 -1,860 Descending Los Angeles Center
02:08AM 33.7703 -116.2558 232° Southwest 287 330 6,700 -1,860 Descending Los Angeles Center
02:09AM 33.7197 -116.3361 233° Southwest 282 325 5,100 -1,560 Descending Los Angeles Center